ADDS METAR Data INFO
IDs: Format: Raw Decoded Include TAF

Data at: 0045 UTC 22 Oct 2017

KLVM 212353Z AUTO 23033G43KT 10SM SCT100 07/M08 A2992 RMK AO2 PK WND 23045/2334 SLP134 T00721078 10106 20067 58003
KLVM 212253Z AUTO 24024G38KT 10SM BKN075 08/M08 A2993 RMK AO2 PK WND 23038/2244 SLP139 T00831078
KLVM 212153Z AUTO 23021G32KT 10SM OVC070 08/M08 A2992 RMK AO2 PK WND 24032/2151 SLP136 T00831078
KLVM 212053Z AUTO 27023G29KT 10SM BKN075 09/M09 A2993 RMK AO2 PK WND 28029/2050 SLP133 T00941094 56006
KLVM 211953Z AUTO 25021G29KT 10SM SCT080 11/M07 A2993 RMK AO2 PK WND 23030/1931 SLP133 T01061072
KLVM 211853Z AUTO 26020G27KT 10SM FEW065 BKN080 BKN090 08/M08 A2995 RMK AO2 PK WND 27033/1757 SLP145 T00781078
KLVM 211753Z AUTO 27023G29KT 10SM CLR 06/M08 A2995 RMK AO2 PK WND 27029/1659 SLP150 T00611078 10078 20033 50007
KLVM 211653Z AUTO 27023G27KT 10SM FEW060 SCT075 06/M06 A2995 RMK AO2 PK WND 28032/1637 SLP147 T00611061
KLVM 211553Z AUTO 27015KT 10SM BKN065 OVC080 05/M05 A2995 RMK AO2 SLP149 T00501050
KLVM 211453Z AUTO 23017G29KT 10SM FEW060 SCT075 06/M08 A2993 RMK AO2 PK WND 22029/1450 WSHFT 1436 SLP141 T00561083 53018
KLVM 211353Z AUTO 26015G21KT 10SM BKN080 03/M07 A2989 RMK AO2 PK WND 23030/1303 SLP133 T00331072
KLVM 211253Z AUTO 25011G20KT 10SM BKN060 OVC080 05/M08 A2989 RMK AO2 PK WND 23030/1203 SLP131 T00501078
KLVM 211153Z AUTO 24019G30KT 10SM CLR 04/M08 A2987 RMK AO2 PK WND 26034/1124 SLP124 T00441083 10050 20033 53012
KLVM 211053Z AUTO 27018KT 10SM FEW075 03/M07 A2985 RMK AO2 PK WND 26028/1023 SLP122 T00331067
KLVM 210953Z AUTO 27018KT 10SM CLR 04/M07 A2983 RMK AO2 PK WND 28029/0933 SLP096 T00391067
KLVM 210853Z AUTO 28015G22KT 10SM OVC060 05/M07 A2983 RMK AO2 PK WND 25026/0810 SLP084 T00501067 51019
KLVM 210753Z AUTO 28012KT 10SM SCT060 04/M06 A2981 RMK AO2 SLP078 T00391061
KLVM 210653Z AUTO 31013G17KT 240V350 10SM FEW048 FEW060 SCT100 04/M06 A2979 RMK AO2 SLP072 T00441056 402000028
KLVM 210553Z AUTO 29006G18KT 10SM FEW050 BKN085 BKN100 04/M03 A2976 RMK AO2 PK WND 24028/0505 SLP061 T00391028 10050 20028 53031
KLVM 210453Z AUTO 25018KT 10SM BKN070 BKN090 05/M03 A2972 RMK AO2 PK WND 25031/0357 SLP044 T00501028
KLVM 210353Z AUTO 25022G30KT 10SM BKN060 05/M02 A2970 RMK AO2 PK WND 26036/0317 SLP037 T00501022
KLVM 210253Z AUTO 26024G35KT 10SM CLR 04/M02 A2966 RMK AO2 PK WND 25037/0159 SLP028 T00441022 53008
KLVM 210153Z AUTO 25023G29KT 10SM SCT120 04/M01 A2964 RMK AO2 PK WND 25032/0120 SLP021 T00441006
KLVM 210053Z AUTO 24024G34KT 10SM FEW037 BKN055 OVC100 04/01 A2962 RMK AO2 PK WND 25034/0049 SLP020 T00390006
KLVM 202353Z AUTO 26019KT 10SM OVC060 03/01 A2963 RMK AO2 PK WND 25035/2254 RAE05 SLP023 P0000 60000 T00330011 10194 20033 51087
KLVM 202253Z AUTO 26027G36KT 10SM -RA BKN050 OVC060 03/02 A2957 RMK AO2 PK WND 25047/2209 RAB05 PRESRR SLP001 P0000 T00330017
KLVM 202153Z AUTO 25028G49KT 10SM SCT055 BKN085 BKN100 12/M01 A2944 RMK AO2 PK WND 22051/2059 PRESRR SLP942 T01221006
KLVM 202053Z AUTO 23031G44KT 10SM CLR 17/M01 A2934 RMK AO2 PK WND 24052/2015 SLP898 T01671011 55005
KLVM 201953Z AUTO 23030G41KT 10SM CLR 18/01 A2933 RMK AO2 PK WND 22050/1921 SLP891 T01780006
KLVM 201853Z AUTO 23020G32KT 10SM FEW090 SCT110 17/02 A2935 RMK AO2 PK WND 22041/1812 SLP898 T01720017
KLVM 201753Z AUTO 23030G42KT 10SM BKN100 18/M01 A2936 RMK AO2 PK WND 23042/1753 SLP900 T01831006 10200 20122 56015
KLVM 201653Z AUTO 24012G20KT 10SM CLR 19/00 A2936 RMK AO2 SLP898 T01890000
KLVM 201553Z AUTO 19014G19KT 10SM CLR 18/M01 A2937 RMK AO2 SLP900 T01831006
KLVM 201453Z AUTO 22010KT 10SM CLR 16/M02 A2940 RMK AO2 SLP918 T01561017 58015
KLVM 201353Z AUTO 22015KT 10SM CLR 16/M03 A2942 RMK AO2 SLP923 T01561033
KLVM 201253Z AUTO 23012KT 10SM CLR 14/M06 A2945 RMK AO2 SLP934 T01391061